FYWH/WDH METAR and TAF weather

Enter ICAO airport designator
Station Type Date Time Source
FYWH METAR 2019/12/16 03:00 UTC NOAA

FYWH 160300Z 00000KT CAVOK 19/11 Q1022 NOSIG


Station Type Date Time Source
FYWH Decoded METAR 2019/12/16 03:00 UTC NOAA

J. G. Strijdom, Namibia (FYWH) 22-29S 017-28E 1700M
Dec 15, 2019 - 10:00 PM EST / 2019.12.16 0300 UTC
Wind: Calm:0
Visibility: greater than 7 mile(s):0
Temperature: 66 F (19 C)
Dew Point: 51 F (11 C)
Relative Humidity: 59%
Pressure (altimeter): 30.18 in. Hg (1022 hPa)
ob: FYWH 160300Z 00000KT CAVOK 19/11 Q1022 NOSIG
cycle: 3

Station Type Date Time Source
FYWH TAF 2019/12/15 18:00 UTC NOAA

TAF FYWH 151600Z 1518/1618 07004KT 9999 FEW050CB PROB30
TEMPO 1519/1522 20014KT -TSRA FEW045CB SCT090

Example: see airport list